Time;durP1;ratioP1;P1;durP2;ratioP2;P2;SDS_P1;SDS_P2;PMS_P1;PMS_P2;Temp;Humidity;BMP_temperature;BMP_pressure;BME280_temperature;BME280_humidity;BME280_pressure;Samples;Min_cycle;Max_cycle;Signal;HPM_P1;HPM_P2
2024/03/22 00:00:23;;;;;;;;;;;;;;;;;;5076837;28;20322;-71
2024/03/22 00:02:49;;;;;;;;;;;;;;;;;;5094715;28;19908;-71
2024/03/22 00:05:16;;;;;;;;;;;;;;;;;;5095072;28;19931;-70
2024/03/22 00:07:42;;;;;;;;;;;;;;;;;;5076884;28;19958;-71
2024/03/22 00:10:08;;;;;;;;;;;;;;;;;;5076504;28;19908;-71
2024/03/22 00:12:34;;;;;;;;;;;;;;;;;;5094985;28;20284;-71
2024/03/22 00:15:00;;;;;;;;;;;;;;;;;;5076745;28;19976;-70
2024/03/22 00:17:26;;;;;;;;;;;;;;;;;;5094450;28;19912;-69
2024/03/22 00:19:52;;;;;;;;;;;;;;;;;;5076365;28;19920;-70
2024/03/22 00:22:18;;;;;;;;;;;;;;;;;;5094835;28;19908;-70
2024/03/22 00:24:44;;;;;;;;;;;;;;;;;;5076526;28;19909;-70
2024/03/22 00:27:11;;;;;;;;;;;;;;;;;;5076484;28;19908;-70
2024/03/22 00:29:37;;;;;;;;;;;;;;;;;;5094097;28;19908;-70
2024/03/22 00:32:03;;;;;;;;;;;;;;;;;;5094300;28;19995;-70
2024/03/22 00:34:29;;;;;;;;;;;;;;;;;;5076408;28;19908;-70
2024/03/22 00:36:55;;;;;;;;;;;;;;;;;;5094795;28;19915;-70
2024/03/22 00:39:21;;;;;;;;;;;;;;;;;;5094111;28;19912;-70
2024/03/22 00:41:47;;;;;;;;;;;;;;;;;;5094465;28;20364;-70
2024/03/22 00:44:13;;;;;;;;;;;;;;;;;;5094369;28;20361;-69
2024/03/22 00:46:39;;;;;;;;;;;;;;;;;;5075795;28;19931;-70
2024/03/22 00:49:05;;;;;;;;;;;;;;;;;;5094363;28;19908;-70
2024/03/22 00:51:31;;;;;;;;;;;;;;;;;;5094232;28;19909;-70
2024/03/22 00:53:57;;;;;;;;;;;;;;;;;;5093958;28;20363;-70
2024/03/22 00:56:23;;;;;;;;;;;;;;;;;;5094143;28;19912;-70
2024/03/22 00:58:49;;;;;;;;;;;;;;;;;;5075617;28;19970;-70
2024/03/22 01:01:15;;;;;;;;;;;;;;;;;;5094201;28;19912;-70
2024/03/22 01:03:41;;;;;;;;;;;;;;;;;;5094133;28;19940;-70
2024/03/22 01:06:07;;;;;;;;;;;;;;;;;;5093757;28;19969;-69
2024/03/22 01:08:33;;;;;;;;;;;;;;;;;;5094116;28;19908;-70
2024/03/22 01:10:59;;;;;;;;;;;;;;;;;;5094168;28;19915;-70
2024/03/22 01:13:25;;;;;;;;;;;;;;;;;;5093665;28;19918;-69
2024/03/22 01:15:51;;;;;;;;;;;;;;;;;;5093955;28;19909;-70
2024/03/22 01:18:17;;;;;;;;;;;;;;;;;;5093854;28;19995;-69
2024/03/22 01:20:46;;;;;;;;;;;;;;;;;;5093482;28;20011;-70
2024/03/22 01:23:12;;;;;;;;;;;;;;;;;;5093899;28;20046;-70
2024/03/22 01:25:38;;;;;;;;;;;;;;;;;;5093920;28;20002;-70
2024/03/22 01:28:04;;;;;;;;;;;;;;;;;;5075392;28;19915;-70
2024/03/22 01:30:30;;;;;;;;;;;;;;;;;;5075774;28;19908;-70
2024/03/22 01:32:56;;;;;;;;;;;;;;;;;;5093974;28;19912;-70
2024/03/22 01:35:22;;;;;;;;;;;;;;;;;;5093655;28;20420;-70
2024/03/22 01:37:48;;;;;;;;;;;;;;;;;;5094014;28;20249;-70
2024/03/22 01:40:14;;;;;;;;;;;;;;;;;;5075926;28;19920;-70
2024/03/22 01:42:40;;;;;;;;;;;;;;;;;;5097523;28;19908;-70
2024/03/22 01:45:06;;;;;;;;;;;;;;;;;;5098039;28;19962;-70
2024/03/22 01:47:32;;;;;;;;;;;;;;;;;;5097752;28;19908;-71
2024/03/22 01:49:58;;;;;;;;;;;;;;;;;;5097260;28;19961;-71
2024/03/22 01:52:24;;;;;;;;;;;;;;;;;;5097672;28;19908;-70
2024/03/22 01:54:50;;;;;;;;;;;;;;;;;;5097592;28;19915;-71
2024/03/22 01:57:16;;;;;;;;;;;;;;;;;;5097230;28;19912;-71
2024/03/22 01:59:42;;;;;;;;;;;;;;;;;;5097427;28;20287;-71
2024/03/22 02:02:08;;;;;;;;;;;;;;;;;;5097336;28;19915;-71
2024/03/22 02:04:34;;;;;;;;;;;;;;;;;;5079297;28;19908;-71
2024/03/22 02:07:00;;;;;;;;;;;;;;;;;;5097426;28;19999;-71
2024/03/22 02:09:26;;;;;;;;;;;;;;;;;;5097063;28;19993;-71
2024/03/22 02:11:52;;;;;;;;;;;;;;;;;;5097330;28;20271;-71
2024/03/22 02:14:18;;;;;;;;;;;;;;;;;;5097277;28;19977;-70
2024/03/22 02:16:45;;;;;;;;;;;;;;;;;;5078637;28;19908;-69
2024/03/22 02:19:11;;;;;;;;;;;;;;;;;;5096958;28;19920;-69
2024/03/22 02:21:37;;;;;;;;;;;;;;;;;;5078908;28;19915;-70
2024/03/22 02:24:03;;;;;;;;;;;;;;;;;;5096819;28;19943;-70
2024/03/22 02:26:29;;;;;;;;;;;;;;;;;;5097005;28;19908;-70
2024/03/22 02:28:55;;;;;;;;;;;;;;;;;;5078852;28;19908;-70
2024/03/22 02:31:21;;;;;;;;;;;;;;;;;;5096647;28;19962;-70
2024/03/22 02:33:47;;;;;;;;;;;;;;;;;;5097021;28;19909;-70
2024/03/22 02:36:12;;;;;;;;;;;;;;;;;;5078702;28;20434;-70
2024/03/22 02:38:38;;;;;;;;;;;;;;;;;;5078215;28;20297;-70
2024/03/22 02:41:04;;;;;;;;;;;;;;;;;;5078530;28;20288;-70
2024/03/22 02:43:30;;;;;;;;;;;;;;;;;;5078570;28;20011;-70
2024/03/22 02:45:56;;;;;;;;;;;;;;;;;;5096210;28;19912;-70
2024/03/22 02:48:22;;;;;;;;;;;;;;;;;;5096621;28;19962;-70
2024/03/22 02:50:48;;;;;;;;;;;;;;;;;;5096335;28;19909;-70
2024/03/22 02:53:14;;;;;;;;;;;;;;;;;;5095901;28;19915;-70
2024/03/22 02:55:40;;;;;;;;;;;;;;;;;;5096492;28;20364;-70
2024/03/22 02:58:06;;;;;;;;;;;;;;;;;;5096456;28;20279;-70
2024/03/22 03:00:32;;;;;;;;;;;;;;;;;;5095909;28;19995;-70
2024/03/22 03:02:58;;;;;;;;;;;;;;;;;;5096324;28;19909;-70
2024/03/22 03:05:24;;;;;;;;;;;;;;;;;;5077748;28;19948;-71
2024/03/22 03:07:50;;;;;;;;;;;;;;;;;;5096498;28;19908;-70
2024/03/22 03:10:16;;;;;;;;;;;;;;;;;;5096222;28;19926;-70
2024/03/22 03:12:42;;;;;;;;;;;;;;;;;;5077595;28;20006;-70
2024/03/22 03:15:08;;;;;;;;;;;;;;;;;;5096028;28;19915;-70
2024/03/22 03:17:34;;;;;;;;;;;;;;;;;;5096003;28;19909;-70
2024/03/22 03:20:00;;;;;;;;;;;;;;;;;;5095411;28;19928;-70
2024/03/22 03:22:26;;;;;;;;;;;;;;;;;;5096482;28;20390;-70
2024/03/22 03:24:52;;;;;;;;;;;;;;;;;;5095899;28;20376;-70
2024/03/22 03:27:18;;;;;;;;;;;;;;;;;;5095516;28;20387;-70
2024/03/22 03:29:43;;;;;;;;;;;;;;;;;;5096195;28;20288;-70
2024/03/22 03:32:09;;;;;;;;;;;;;;;;;;5095705;28;19908;-70
2024/03/22 03:34:35;;;;;;;;;;;;;;;;;;5095484;28;19908;-70
2024/03/22 03:37:01;;;;;;;;;;;;;;;;;;5095677;28;19908;-70
2024/03/22 03:39:29;;;;;;;;;;;;;;;;;;5095637;28;19969;-70
2024/03/22 03:41:55;;;;;;;;;;;;;;;;;;5077037;28;19908;-70
2024/03/22 03:44:21;;;;;;;;;;;;;;;;;;5096013;28;20281;-70
2024/03/22 03:46:47;;;;;;;;;;;;;;;;;;5077320;28;20280;-69
2024/03/22 03:49:12;;;;;;;;;;;;;;;;;;5095007;28;19977;-70
2024/03/22 03:51:38;;;;;;;;;;;;;;;;;;5095326;28;19962;-70
2024/03/22 03:54:04;;;;;;;;;;;;;;;;;;5077179;28;19917;-70
2024/03/22 03:56:30;;;;;;;;;;;;;;;;;;5076584;28;19908;-70
2024/03/22 03:58:56;;;;;;;;;;;;;;;;;;5095140;28;19969;-70
2024/03/22 04:01:22;;;;;;;;;;;;;;;;;;5095176;28;19912;-70
2024/03/22 04:03:48;;;;;;;;;;;;;;;;;;5093938;28;19909;-70
2024/03/22 04:06:14;;;;;;;;;;;;;;;;;;5095239;28;19953;-69
2024/03/22 04:08:40;;;;;;;;;;;;;;;;;;5094771;28;20295;-70
2024/03/22 04:11:06;;;;;;;;;;;;;;;;;;5094965;28;19974;-70
2024/03/22 04:13:33;;;;;;;;;;;;;;;;;;5094968;28;19908;-70
2024/03/22 04:15:59;;;;;;;;;;;;;;;;;;5076321;28;19954;-70
2024/03/22 04:18:25;;;;;;;;;;;;;;;;;;5094651;28;19909;-69
2024/03/22 04:20:51;;;;;;;;;;;;;;;;;;5094963;28;19916;-70
2024/03/22 04:23:16;;;;;;;;;;;;;;;;;;5094461;28;19912;-69
2024/03/22 04:25:42;;;;;;;;;;;;;;;;;;5095299;28;19923;-69
2024/03/22 04:28:08;;;;;;;;;;;;;;;;;;5094724;28;19908;-70
2024/03/22 04:30:34;;;;;;;;;;;;;;;;;;5094417;28;19916;-70
2024/03/22 04:33:00;;;;;;;;;;;;;;;;;;5094633;28;19908;-70
2024/03/22 04:35:26;;;;;;;;;;;;;;;;;;5094885;28;19965;-70
2024/03/22 04:37:52;;;;;;;;;;;;;;;;;;5076002;28;19908;-69
2024/03/22 04:40:18;;;;;;;;;;;;;;;;;;5094757;28;20019;-70
2024/03/22 04:42:44;;;;;;;;;;;;;;;;;;5094483;28;19915;-70
2024/03/22 04:45:10;;;;;;;;;;;;;;;;;;5094036;28;19908;-70
2024/03/22 04:47:37;;;;;;;;;;;;;;;;;;5076202;28;20302;-69
2024/03/22 04:50:03;;;;;;;;;;;;;;;;;;5094375;28;19908;-70
2024/03/22 04:52:29;;;;;;;;;;;;;;;;;;5093899;28;19908;-70
2024/03/22 04:54:55;;;;;;;;;;;;;;;;;;5076190;28;19969;-70
2024/03/22 04:57:21;;;;;;;;;;;;;;;;;;5076077;28;19943;-70
2024/03/22 04:59:47;;;;;;;;;;;;;;;;;;5093726;28;19916;-70
2024/03/22 05:02:13;;;;;;;;;;;;;;;;;;5075987;28;19915;-69
2024/03/22 05:04:39;;;;;;;;;;;;;;;;;;5094162;28;19955;-70
2024/03/22 05:07:05;;;;;;;;;;;;;;;;;;5075580;28;19908;-70
2024/03/22 05:09:32;;;;;;;;;;;;;;;;;;5094041;28;19955;-69
2024/03/22 05:11:57;;;;;;;;;;;;;;;;;;5094051;28;20279;-70
2024/03/22 05:14:23;;;;;;;;;;;;;;;;;;5075689;28;19908;-70
2024/03/22 05:16:49;;;;;;;;;;;;;;;;;;5075843;28;19912;-70
2024/03/22 05:19:15;;;;;;;;;;;;;;;;;;5093230;28;19924;-69
2024/03/22 05:21:41;;;;;;;;;;;;;;;;;;5076083;28;19962;-70
2024/03/22 05:24:07;;;;;;;;;;;;;;;;;;5093840;28;19908;-69
2024/03/22 05:26:36;;;;;;;;;;;;;;;;;;5091469;28;19927;-69
2024/03/22 05:29:02;;;;;;;;;;;;;;;;;;5092790;28;19999;-70
2024/03/22 05:31:28;;;;;;;;;;;;;;;;;;5091821;28;20062;-70
2024/03/22 05:33:54;;;;;;;;;;;;;;;;;;5092584;28;19908;-70
2024/03/22 05:36:20;;;;;;;;;;;;;;;;;;5075555;28;19915;-70
2024/03/22 05:38:46;;;;;;;;;;;;;;;;;;5093427;28;20014;-70
2024/03/22 05:41:12;;;;;;;;;;;;;;;;;;5093263;28;19912;-71
2024/03/22 05:43:38;;;;;;;;;;;;;;;;;;5075535;28;19961;-70
2024/03/22 05:46:04;;;;;;;;;;;;;;;;;;5092847;28;19908;-70
2024/03/22 05:48:30;;;;;;;;;;;;;;;;;;5093323;28;19908;-70
2024/03/22 05:50:56;;;;;;;;;;;;;;;;;;5093726;28;19919;-71
2024/03/22 05:53:22;;;;;;;;;;;;;;;;;;5093630;28;19908;-71
2024/03/22 05:55:48;;;;;;;;;;;;;;;;;;5093458;28;20007;-71
2024/03/22 05:58:14;;;;;;;;;;;;;;;;;;5092570;28;20355;-71
2024/03/22 06:00:40;;;;;;;;;;;;;;;;;;5091852;28;20425;-71
2024/03/22 06:03:06;;;;;;;;;;;;;;;;;;5092578;28;19912;-71
2024/03/22 06:05:32;;;;;;;;;;;;;;;;;;5074890;28;20366;-71
2024/03/22 06:07:58;;;;;;;;;;;;;;;;;;5093054;28;19908;-71
2024/03/22 06:10:24;;;;;;;;;;;;;;;;;;5092671;28;19908;-71
2024/03/22 06:12:50;;;;;;;;;;;;;;;;;;5093080;28;19944;-71
2024/03/22 06:15:15;;;;;;;;;;;;;;;;;;5093428;28;19912;-72
2024/03/22 06:17:42;;;;;;;;;;;;;;;;;;5093374;28;19908;-71
2024/03/22 06:20:09;;;;;;;;;;;;;;;;;;5093015;28;19941;-70
2024/03/22 06:22:37;;;;;;;;;;;;;;;;;;5092654;28;20003;-69
2024/03/22 06:25:03;;;;;;;;;;;;;;;;;;5092150;28;19908;-70
2024/03/22 06:27:29;;;;;;;;;;;;;;;;;;5075182;28;19908;-70
2024/03/22 06:29:55;;;;;;;;;;;;;;;;;;5094539;28;19908;-70
2024/03/22 06:32:21;;;;;;;;;;;;;;;;;;5094598;28;19919;-71
2024/03/22 06:34:47;;;;;;;;;;;;;;;;;;5094720;28;20007;-70
2024/03/22 06:37:13;;;;;;;;;;;;;;;;;;5092956;28;19969;-72
2024/03/22 06:39:39;;;;;;;;;;;;;;;;;;5087959;28;19912;-71
2024/03/22 06:42:05;;;;;;;;;;;;;;;;;;5093803;28;19959;-70
2024/03/22 06:44:32;;;;;;;;;;;;;;;;;;5077138;28;20548;-70
2024/03/22 06:46:59;;;;;;;;;;;;;;;;;;5086723;28;20140;-69
2024/03/22 06:49:26;;;;;;;;;;;;;;;;;;5047609;28;20804;-69
2024/03/22 06:51:52;;;;;;;;;;;;;;;;;;5083103;28;20356;-69
2024/03/22 06:54:18;;;;;;;;;;;;;;;;;;5078523;28;19958;-69
2024/03/22 06:56:44;;;;;;;;;;;;;;;;;;5077407;28;19913;-74
2024/03/22 06:59:11;;;;;;;;;;;;;;;;;;5066090;28;19920;-74
2024/03/22 07:01:43;;;;;;;;;;;;;;;;;;5092339;28;20411;-74
2024/03/22 07:04:09;;;;;;;;;;;;;;;;;;5069268;28;19912;-74
2024/03/22 07:06:38;;;;;;;;;;;;;;;;;;5093552;28;20265;-74
2024/03/22 07:09:07;;;;;;;;;;;;;;;;;;5094343;28;20376;-74
2024/03/22 07:11:33;;;;;;;;;;;;;;;;;;5092868;28;20269;-74
2024/03/22 07:13:59;;;;;;;;;;;;;;;;;;5092763;28;19908;-74
2024/03/22 07:16:25;;;;;;;;;;;;;;;;;;5090182;28;20006;-73
2024/03/22 07:18:51;;;;;;;;;;;;;;;;;;5092263;28;20014;-75
2024/03/22 07:21:16;;;;;;;;;;;;;;;;;;5092904;28;20423;-73
2024/03/22 07:23:44;;;;;;;;;;;;;;;;;;5093419;28;19915;-73
2024/03/22 07:26:10;;;;;;;;;;;;;;;;;;5092759;28;19912;-74
2024/03/22 07:28:36;;;;;;;;;;;;;;;;;;5080002;28;19970;-74
2024/03/22 07:31:02;;;;;;;;;;;;;;;;;;5056257;28;19962;-75
2024/03/22 07:33:28;;;;;;;;;;;;;;;;;;5073028;28;19912;-73
2024/03/22 07:35:54;;;;;;;;;;;;;;;;;;5089197;28;19912;-73
2024/03/22 07:38:20;;;;;;;;;;;;;;;;;;5090230;28;20020;-73
2024/03/22 07:40:46;;;;;;;;;;;;;;;;;;5091424;28;19927;-74
2024/03/22 07:43:14;;;;;;;;;;;;;;;;;;5076025;28;20262;-74
2024/03/22 07:45:40;;;;;;;;;;;;;;;;;;5078352;28;19908;-73
2024/03/22 07:48:06;;;;;;;;;;;;;;;;;;5091462;28;19916;-74
2024/03/22 07:50:32;;;;;;;;;;;;;;;;;;5092998;28;19909;-74
2024/03/22 07:52:59;;;;;;;;;;;;;;;;;;5093731;28;19954;-74
2024/03/22 07:55:25;;;;;;;;;;;;;;;;;;5088430;28;20006;-74
2024/03/22 07:57:51;;;;;;;;;;;;;;;;;;5092137;28;20399;-74
2024/03/22 08:00:21;;;;;;;;;;;;;;;;;;5091991;28;19920;-73
2024/03/22 08:02:50;;;;;;;;;;;;;;;;;;5083077;28;19912;-74
2024/03/22 08:05:16;;;;;;;;;;;;;;;;;;5080427;28;19912;-74
2024/03/22 08:07:54;;;;;;;;;;;;;;;;;;5079122;28;19908;-74
2024/03/22 08:10:30;;;;;;;;;;;;;;;;;;5080169;28;19916;-74
2024/03/22 08:12:56;;;;;;;;;;;;;;;;;;5092487;28;19924;-74
2024/03/22 08:15:22;;;;;;;;;;;;;;;;;;5092088;28;19919;-74
2024/03/22 08:17:48;;;;;;;;;;;;;;;;;;5091885;28;19912;-75
2024/03/22 08:20:14;;;;;;;;;;;;;;;;;;5084563;28;19927;-74
2024/03/22 08:22:40;;;;;;;;;;;;;;;;;;5082077;28;19912;-75
2024/03/22 08:25:07;;;;;;;;;;;;;;;;;;5085575;28;19912;-74
2024/03/22 08:27:34;;;;;;;;;;;;;;;;;;5073768;28;19908;-75
2024/03/22 08:30:00;;;;;;;;;;;;;;;;;;5091690;28;19923;-73
2024/03/22 08:32:26;;;;;;;;;;;;;;;;;;5091277;28;20356;-75
2024/03/22 08:34:52;;;;;;;;;;;;;;;;;;5092802;28;20328;-74
2024/03/22 08:37:18;;;;;;;;;;;;;;;;;;5090134;28;19915;-74
2024/03/22 08:39:44;;;;;;;;;;;;;;;;;;5083450;28;19920;-74
2024/03/22 08:42:10;;;;;;;;;;;;;;;;;;5091094;28;20017;-74
2024/03/22 08:44:36;;;;;;;;;;;;;;;;;;5091638;28;20446;-74
2024/03/22 08:47:02;;;;;;;;;;;;;;;;;;5092658;28;19953;-74
2024/03/22 08:49:30;;;;;;;;;;;;;;;;;;5073264;28;20003;-75
2024/03/22 08:51:56;;;;;;;;;;;;;;;;;;5092698;28;19919;-75
2024/03/22 08:54:22;;;;;;;;;;;;;;;;;;5091402;28;20368;-74
2024/03/22 08:56:48;;;;;;;;;;;;;;;;;;5073382;28;19961;-74
2024/03/22 08:59:14;;;;;;;;;;;;;;;;;;5085796;28;19921;-74
2024/03/22 09:01:40;;;;;;;;;;;;;;;;;;5088537;28;20269;-75
2024/03/22 09:04:22;;;;;;;;;;;;;;;;;;5109542;27;20792;-73
2024/03/22 09:06:48;;;;;;;;;;;;;;;;;;5108486;28;20015;-72
2024/03/22 09:09:51;;;;;;;;;;;;;;;;;;5067630;27;20325;-76
2024/03/22 09:12:17;;;;;;;;;;;;;;;;;;5068658;28;19913;-74
2024/03/22 09:14:43;;;;;;;;;;;;;;;;;;5066730;28;19908;-73
2024/03/22 09:17:09;;;;;;;;;;;;;;;;;;5066358;28;19908;-74
2024/03/22 09:19:35;;;;;;;;;;;;;;;;;;5067746;28;19909;-74
2024/03/22 09:24:21;;;;;;;;;;;;;;;;;;5070067;27;2675866;-73
2024/03/22 09:26:47;;;;;;;;;;;;;;;;;;5170333;27;20405;-73
2024/03/22 09:29:14;;;;;;;;;;;;;;;;;;5170803;27;20347;-73
2024/03/22 09:34:06;;;;;;;;;;;;;;;;;;5108181;27;19916;-74
2024/03/22 09:39:06;;;;;;;;;;;;;;;;;;5084131;27;19928;-72
2024/03/22 09:41:32;;;;;;;;;;;;;;;;;;5089652;28;20311;-71
2024/03/22 09:45:59;;;;;;;;;;;;;;;;;;5149794;27;19922;-74
2024/03/22 09:48:25;;;;;;;;;;;;;;;;;;5132118;27;19911;-74
2024/03/22 09:50:51;;;;;;;;;;;;;;;;;;5133115;27;19908;-73
2024/03/22 09:53:17;;;;;;;;;;;;;;;;;;5150372;27;19908;-73
2024/03/22 09:55:43;;;;;;;;;;;;;;;;;;5131266;27;19914;-73
2024/03/22 09:58:09;;;;;;;;;;;;;;;;;;5111124;28;19918;-73
2024/03/22 10:00:35;;;;;;;;;;;;;;;;;;5110733;28;19912;-74
2024/03/22 10:03:03;;;;;;;;;;;;;;;;;;5124332;27;19960;-73
2024/03/22 10:05:29;;;;;;;;;;;;;;;;;;5126557;28;19920;-74
2024/03/22 10:07:55;;;;;;;;;;;;;;;;;;5126906;28;19907;-74
2024/03/22 10:10:21;;;;;;;;;;;;;;;;;;5108128;28;19979;-74
2024/03/22 10:15:08;;;;;;;;;;;;;;;;;;5108930;27;19916;-74
2024/03/22 10:19:33;;;;;;;;;;;;;;;;;;5106032;27;19926;-73
2024/03/22 10:23:16;;;;;;;;;;;;;;;;;;5086345;27;19919;-74
2024/03/22 10:27:51;;;;;;;;;;;;;;;;;;5086212;27;19923;-75
2024/03/22 10:30:20;;;;;;;;;;;;;;;;;;5085813;28;20372;-75
2024/03/22 10:32:45;;;;;;;;;;;;;;;;;;5087896;28;20015;-75
2024/03/22 10:35:11;;;;;;;;;;;;;;;;;;5088332;28;20420;-73
2024/03/22 10:37:37;;;;;;;;;;;;;;;;;;5071399;28;20378;-73
2024/03/22 10:42:20;;;;;;;;;;;;;;;;;;5075165;28;19921;-74
2024/03/22 10:44:46;;;;;;;;;;;;;;;;;;5068162;28;19920;-74
2024/03/22 10:47:12;;;;;;;;;;;;;;;;;;5064505;28;20280;-74
2024/03/22 10:49:38;;;;;;;;;;;;;;;;;;5064964;28;19909;-73
2024/03/22 10:52:04;;;;;;;;;;;;;;;;;;5065885;28;19937;-74
2024/03/22 10:54:30;;;;;;;;;;;;;;;;;;5063977;28;19963;-73
2024/03/22 10:58:36;;;;;;;;;;;;;;;;;;5102284;27;19912;-73
2024/03/22 11:01:05;;;;;;;;;;;;;;;;;;5086698;28;19918;-73
2024/03/22 11:03:33;;;;;;;;;;;;;;;;;;5085695;28;19958;-74
2024/03/22 11:05:59;;;;;;;;;;;;;;;;;;5085260;28;19909;-73
2024/03/22 11:08:27;;;;;;;;;;;;;;;;;;5085117;28;19908;-74
2024/03/22 11:10:56;;;;;;;;;;;;;;;;;;5086387;28;19912;-73
2024/03/22 11:13:23;;;;;;;;;;;;;;;;;;5088516;28;19961;-74
2024/03/22 11:15:49;;;;;;;;;;;;;;;;;;5090799;28;19914;-74
2024/03/22 11:18:16;;;;;;;;;;;;;;;;;;5088834;28;19916;-73
2024/03/22 11:20:41;;;;;;;;;;;;;;;;;;5082202;28;20001;-74
2024/03/22 11:23:08;;;;;;;;;;;;;;;;;;5082659;28;19959;-74
2024/03/22 11:25:34;;;;;;;;;;;;;;;;;;5088797;28;19917;-74
2024/03/22 11:28:01;;;;;;;;;;;;;;;;;;5078761;28;20066;-74
2024/03/22 11:30:27;;;;;;;;;;;;;;;;;;5067009;28;19908;-75
2024/03/22 11:34:23;;;;;;;;;;;;;;;;;;5150548;27;19915;-73
2024/03/22 11:36:50;;;;;;;;;;;;;;;;;;5152315;27;19912;-75
2024/03/22 11:39:17;;;;;;;;;;;;;;;;;;5132044;27;19907;-75
2024/03/22 11:41:43;;;;;;;;;;;;;;;;;;5131919;27;19907;-74
2024/03/22 11:44:09;;;;;;;;;;;;;;;;;;5132392;27;19951;-74
2024/03/22 11:46:35;;;;;;;;;;;;;;;;;;5151750;27;19907;-73
2024/03/22 11:49:01;;;;;;;;;;;;;;;;;;5134066;27;19918;-73
2024/03/22 11:53:21;;;;;;;;;;;;;;;;;;5131951;27;19922;-73
2024/03/22 11:55:47;;;;;;;;;;;;;;;;;;5112288;28;20002;-74
2024/03/22 11:58:13;;;;;;;;;;;;;;;;;;5109547;28;19953;-74
2024/03/22 12:00:39;;;;;;;;;;;;;;;;;;5108946;28;20003;-75
2024/03/22 12:03:06;;;;;;;;;;;;;;;;;;5111207;28;19908;-74
2024/03/22 12:05:32;;;;;;;;;;;;;;;;;;5109592;28;19914;-75
2024/03/22 12:08:24;;;;;;;;;;;;;;;;;;5111322;27;19916;-74
2024/03/22 12:10:50;;;;;;;;;;;;;;;;;;5110472;28;20010;-75
2024/03/22 12:13:16;;;;;;;;;;;;;;;;;;5109731;28;20364;-74
2024/03/22 12:15:42;;;;;;;;;;;;;;;;;;5107920;28;19991;-74
2024/03/22 12:18:08;;;;;;;;;;;;;;;;;;5107651;28;19912;-74
2024/03/22 12:20:34;;;;;;;;;;;;;;;;;;5109312;28;19919;-74
2024/03/22 12:25:09;;;;;;;;;;;;;;;;;;5108311;27;19912;-75
2024/03/22 12:27:35;;;;;;;;;;;;;;;;;;5108851;28;20011;-74
2024/03/22 12:31:29;;;;;;;;;;;;;;;;;;5088826;27;19916;-73
2024/03/22 12:36:27;;;;;;;;;;;;;;;;;;5109278;27;19912;-74
2024/03/22 12:38:53;;;;;;;;;;;;;;;;;;5111602;28;20364;-74
2024/03/22 12:41:19;;;;;;;;;;;;;;;;;;5111287;28;19912;-75
2024/03/22 12:43:45;;;;;;;;;;;;;;;;;;5110822;28;19952;-75
2024/03/22 12:46:11;;;;;;;;;;;;;;;;;;5111326;28;19908;-74
2024/03/22 12:48:37;;;;;;;;;;;;;;;;;;5108949;28;19908;-74
2024/03/22 12:51:03;;;;;;;;;;;;;;;;;;5110154;28;19908;-75
2024/03/22 12:53:29;;;;;;;;;;;;;;;;;;5110548;28;19987;-74
2024/03/22 12:56:30;;;;;;;;;;;;;;;;;;5087768;27;2403505;-73
2024/03/22 12:58:56;;;;;;;;;;;;;;;;;;5172066;27;19911;-74
2024/03/22 13:01:22;;;;;;;;;;;;;;;;;;5171100;27;19903;-73
2024/03/22 13:03:48;;;;;;;;;;;;;;;;;;5172797;27;20438;-74
2024/03/22 13:06:14;;;;;;;;;;;;;;;;;;5173440;27;20279;-73
2024/03/22 13:08:40;;;;;;;;;;;;;;;;;;5172345;27;20014;-74
2024/03/22 13:11:20;;;;;;;;;;;;;;;;;;5109827;27;19922;-74
2024/03/22 13:13:46;;;;;;;;;;;;;;;;;;5110884;28;19912;-74
2024/03/22 13:18:43;;;;;;;;;;;;;;;;;;5110787;27;19916;-75
2024/03/22 13:21:09;;;;;;;;;;;;;;;;;;5111238;28;20002;-75
2024/03/22 13:23:35;;;;;;;;;;;;;;;;;;5111445;28;19912;-74
2024/03/22 13:26:47;;;;;;;;;;;;;;;;;;5111646;27;19918;-73
2024/03/22 13:29:13;;;;;;;;;;;;;;;;;;5111770;28;20011;-74
2024/03/22 13:31:39;;;;;;;;;;;;;;;;;;5111386;28;20692;-74
2024/03/22 13:34:05;;;;;;;;;;;;;;;;;;5111626;28;19908;-74
2024/03/22 13:36:33;;;;;;;;;;;;;;;;;;5111468;28;20289;-73
2024/03/22 13:40:15;;;;;;;;;;;;;;;;;;5068801;28;19917;-73
2024/03/22 13:42:41;;;;;;;;;;;;;;;;;;5069371;28;20004;-74
2024/03/22 13:45:08;;;;;;;;;;;;;;;;;;5070700;28;20317;-76
2024/03/22 13:47:35;;;;;;;;;;;;;;;;;;5071704;28;19916;-74
2024/03/22 13:50:02;;;;;;;;;;;;;;;;;;5069619;28;19958;-74
2024/03/22 13:52:27;;;;;;;;;;;;;;;;;;5070498;28;20368;-74
2024/03/22 13:54:53;;;;;;;;;;;;;;;;;;5070882;28;19909;-75
2024/03/22 13:57:19;;;;;;;;;;;;;;;;;;5069535;28;19908;-75
2024/03/22 13:59:46;;;;;;;;;;;;;;;;;;5070369;28;19925;-75
2024/03/22 14:02:12;;;;;;;;;;;;;;;;;;5070794;28;19970;-75
2024/03/22 14:04:38;;;;;;;;;;;;;;;;;;5070769;28;19909;-74
2024/03/22 14:07:04;;;;;;;;;;;;;;;;;;5068980;28;20125;-74
2024/03/22 14:09:30;;;;;;;;;;;;;;;;;;5069245;28;19908;-74
2024/03/22 14:11:56;;;;;;;;;;;;;;;;;;5070520;28;19916;-74
2024/03/22 14:14:23;;;;;;;;;;;;;;;;;;5070463;28;19916;-74
2024/03/22 14:16:49;;;;;;;;;;;;;;;;;;5069141;28;19909;-74
2024/03/22 14:19:18;;;;;;;;;;;;;;;;;;5070507;28;19920;-74
2024/03/22 14:21:44;;;;;;;;;;;;;;;;;;5069974;28;19908;-74
2024/03/22 14:24:09;;;;;;;;;;;;;;;;;;5070355;28;20071;-74
2024/03/22 14:26:41;;;;;;;;;;;;;;;;;;5070259;28;19913;-73
2024/03/22 14:29:07;;;;;;;;;;;;;;;;;;5070409;28;19908;-75
2024/03/22 14:31:33;;;;;;;;;;;;;;;;;;5068851;28;20419;-75
2024/03/22 14:33:59;;;;;;;;;;;;;;;;;;5070121;28;20337;-74
2024/03/22 14:36:25;;;;;;;;;;;;;;;;;;5068362;28;19920;-74
2024/03/22 14:38:51;;;;;;;;;;;;;;;;;;5078738;28;19920;-74
2024/03/22 14:41:18;;;;;;;;;;;;;;;;;;5071998;28;20017;-75
2024/03/22 14:43:44;;;;;;;;;;;;;;;;;;5089864;28;19966;-75
2024/03/22 14:46:10;;;;;;;;;;;;;;;;;;5071964;28;19954;-75
2024/03/22 14:48:36;;;;;;;;;;;;;;;;;;5090111;28;20385;-75
2024/03/22 14:51:02;;;;;;;;;;;;;;;;;;5079372;28;19912;-75
2024/03/22 14:53:28;;;;;;;;;;;;;;;;;;5076499;28;19908;-75
2024/03/22 14:55:54;;;;;;;;;;;;;;;;;;5076353;28;19908;-75
2024/03/22 14:58:20;;;;;;;;;;;;;;;;;;5058289;28;19912;-74
2024/03/22 15:00:46;;;;;;;;;;;;;;;;;;5076325;28;19919;-74
2024/03/22 15:03:12;;;;;;;;;;;;;;;;;;5075853;28;19916;-75
2024/03/22 15:05:38;;;;;;;;;;;;;;;;;;5076257;28;19913;-75
2024/03/22 15:08:04;;;;;;;;;;;;;;;;;;5076330;28;19908;-75
2024/03/22 15:10:30;;;;;;;;;;;;;;;;;;5057938;28;19908;-74
2024/03/22 15:12:56;;;;;;;;;;;;;;;;;;5076007;28;20337;-75
2024/03/22 15:15:22;;;;;;;;;;;;;;;;;;5076174;28;19909;-75
2024/03/22 15:20:38;;;;;;;;;;;;;;;;;;5144664;27;19916;-75
2024/03/22 15:23:04;;;;;;;;;;;;;;;;;;5111909;28;20348;-75
2024/03/22 15:25:30;;;;;;;;;;;;;;;;;;5111320;28;19908;-75
2024/03/22 15:27:56;;;;;;;;;;;;;;;;;;5111638;28;19908;-75
2024/03/22 15:30:22;;;;;;;;;;;;;;;;;;5127394;28;19908;-75
2024/03/22 15:32:48;;;;;;;;;;;;;;;;;;5111063;28;19999;-75
2024/03/22 15:35:49;;;;;;;;;;;;;;;;;;5132399;27;19916;-74
2024/03/22 15:39:13;;;;;;;;;;;;;;;;;;5111525;27;19916;-74
2024/03/22 15:41:39;;;;;;;;;;;;;;;;;;5110243;28;19919;-75
2024/03/22 15:44:05;;;;;;;;;;;;;;;;;;5110444;28;20336;-74
2024/03/22 15:47:40;;;;;;;;;;;;;;;;;;5111743;27;19916;-74
2024/03/22 15:50:06;;;;;;;;;;;;;;;;;;5111712;28;20321;-74
2024/03/22 15:52:32;;;;;;;;;;;;;;;;;;5111329;28;20003;-74
2024/03/22 15:54:59;;;;;;;;;;;;;;;;;;5111894;28;19995;-74
2024/03/22 15:57:26;;;;;;;;;;;;;;;;;;5111542;28;19914;-74
2024/03/22 15:59:52;;;;;;;;;;;;;;;;;;5111164;28;19915;-76
2024/03/22 16:04:02;;;;;;;;;;;;;;;;;;5092117;27;19913;-74
2024/03/22 16:09:13;;;;;;;;;;;;;;;;;;5111604;27;20298;-75
2024/03/22 16:11:39;;;;;;;;;;;;;;;;;;5110301;28;19925;-74
2024/03/22 16:14:05;;;;;;;;;;;;;;;;;;5111037;28;19912;-74
2024/03/22 16:16:31;;;;;;;;;;;;;;;;;;5110371;28;19908;-73
2024/03/22 16:18:57;;;;;;;;;;;;;;;;;;5112071;28;19999;-74
2024/03/22 16:21:23;;;;;;;;;;;;;;;;;;5111045;28;19951;-73
2024/03/22 16:25:49;;;;;;;;;;;;;;;;;;5112300;27;19922;-75
2024/03/22 16:28:15;;;;;;;;;;;;;;;;;;5111415;28;19958;-74
2024/03/22 16:30:41;;;;;;;;;;;;;;;;;;5110485;28;19908;-75
2024/03/22 16:33:07;;;;;;;;;;;;;;;;;;5111624;28;19908;-75
2024/03/22 16:37:12;;;;;;;;;;;;;;;;;;5112444;27;19916;-73
2024/03/22 16:39:38;;;;;;;;;;;;;;;;;;5111726;28;19912;-72
2024/03/22 16:42:04;;;;;;;;;;;;;;;;;;5111370;28;19915;-74
2024/03/22 16:46:55;;;;;;;;;;;;;;;;;;5112562;27;19916;-73
2024/03/22 16:50:10;;;;;;;;;;;;;;;;;;5070815;28;19924;-75
2024/03/22 16:52:36;;;;;;;;;;;;;;;;;;5071087;28;19917;-75
2024/03/22 16:57:27;;;;;;;;;;;;;;;;;;5111303;27;19923;-75
2024/03/22 17:01:57;;;;;;;;;;;;;;;;;;5111869;27;19916;-74
2024/03/22 17:04:24;;;;;;;;;;;;;;;;;;5111293;28;20007;-75
2024/03/22 17:06:50;;;;;;;;;;;;;;;;;;5111711;28;20383;-74
2024/03/22 17:09:16;;;;;;;;;;;;;;;;;;5111641;28;19908;-74
2024/03/22 17:11:42;;;;;;;;;;;;;;;;;;5111211;28;20469;-75
2024/03/22 17:14:09;;;;;;;;;;;;;;;;;;5111134;28;20359;-74
2024/03/22 17:16:35;;;;;;;;;;;;;;;;;;5111265;28;19939;-74
2024/03/22 17:19:07;;;;;;;;;;;;;;;;;;5111306;28;19908;-75
2024/03/22 17:21:33;;;;;;;;;;;;;;;;;;5109377;28;19947;-75
2024/03/22 17:23:59;;;;;;;;;;;;;;;;;;5110813;28;19947;-75
2024/03/22 17:26:25;;;;;;;;;;;;;;;;;;5109954;28;19908;-75
2024/03/22 17:28:52;;;;;;;;;;;;;;;;;;5111057;28;19908;-75
2024/03/22 17:31:18;;;;;;;;;;;;;;;;;;5110861;28;20385;-73
2024/03/22 17:33:44;;;;;;;;;;;;;;;;;;5109810;28;19908;-74
2024/03/22 17:36:10;;;;;;;;;;;;;;;;;;5109743;28;20387;-73